Time;durP1;ratioP1;P1;durP2;ratioP2;P2;SDS_P1;SDS_P2;PMS_P1;PMS_P2;Temp;Humidity;BMP_temperature;BMP_pressure;BME280_temperature;BME280_humidity;BME280_pressure;Samples;Min_cycle;Max_cycle;Signal;HPM_P1;HPM_P2
2023/12/19 00:00:18;;;;;;;1999.90;999.90;;;-1.40;99.90;;;;;;5057927;28;20049;-79
2023/12/19 00:02:44;;;;;;;1999.90;999.90;;;-1.40;99.90;;;;;;5057830;28;20099;-79
2023/12/19 00:05:09;;;;;;;1999.90;999.90;;;-1.50;99.90;;;;;;5056306;28;20080;-79
2023/12/19 00:07:35;;;;;;;1999.90;999.90;;;-1.50;99.90;;;;;;5056977;28;20036;-79
2023/12/19 00:10:01;;;;;;;1999.90;999.90;;;-1.50;99.90;;;;;;5056486;28;20087;-79
2023/12/19 00:12:26;;;;;;;1999.90;999.90;;;-1.50;99.90;;;;;;5058119;28;20034;-79
2023/12/19 00:14:52;;;;;;;1999.90;999.90;;;-1.60;99.90;;;;;;5057870;28;20468;-79
2023/12/19 00:17:17;;;;;;;1999.90;999.90;;;-1.50;99.90;;;;;;5058268;28;20037;-80
2023/12/19 00:19:43;;;;;;;1999.90;999.90;;;-1.60;99.90;;;;;;5057856;28;20531;-79
2023/12/19 00:22:09;;;;;;;1999.90;999.90;;;-1.60;99.90;;;;;;5059669;28;20037;-80
2023/12/19 00:24:36;;;;;;;1999.90;999.90;;;-1.50;99.90;;;;;;5057031;28;20033;-80
2023/12/19 00:27:02;;;;;;;1999.90;999.90;;;-1.40;99.90;;;;;;5056712;28;20033;-80
2023/12/19 00:29:28;;;;;;;1999.90;999.90;;;-1.50;99.90;;;;;;5058303;28;20499;-80
2023/12/19 00:31:53;;;;;;;1999.90;999.90;;;-1.50;99.90;;;;;;5058300;28;20534;-80
2023/12/19 00:34:19;;;;;;;1999.90;999.90;;;-1.50;99.90;;;;;;5059128;28;20030;-80
2023/12/19 00:36:44;;;;;;;1999.90;999.90;;;-1.60;99.90;;;;;;5057854;28;20038;-79
2023/12/19 00:39:10;;;;;;;1999.90;999.90;;;-1.60;99.90;;;;;;5059047;28;20041;-80
2023/12/19 00:41:36;;;;;;;1999.90;999.90;;;-1.60;99.90;;;;;;5057826;28;20489;-80
2023/12/19 00:44:02;;;;;;;1999.90;999.90;;;-1.70;99.90;;;;;;5058353;28;20029;-79
2023/12/19 00:46:27;;;;;;;1999.90;999.90;;;-1.70;99.90;;;;;;5058861;28;20065;-79
2023/12/19 00:48:53;;;;;;;1999.90;999.90;;;-1.60;99.90;;;;;;5059548;28;20030;-80
2023/12/19 00:51:20;;;;;;;1999.90;999.90;;;-1.70;99.90;;;;;;5058135;28;20113;-80
2023/12/19 00:53:46;;;;;;;1999.90;999.90;;;-1.70;99.90;;;;;;5060036;28;20032;-80
2023/12/19 00:56:12;;;;;;;1999.90;999.90;;;-1.70;99.90;;;;;;5057409;28;20488;-79
2023/12/19 00:58:38;;;;;;;1999.90;999.90;;;-1.80;99.90;;;;;;5059753;28;20472;-80
2023/12/19 01:01:05;;;;;;;1999.90;999.90;;;-1.80;99.90;;;;;;5059415;28;20153;-80
2023/12/19 01:03:32;;;;;;;1999.90;999.90;;;-1.70;99.90;;;;;;5060130;28;20029;-80
2023/12/19 01:05:59;;;;;;;1999.90;999.90;;;-1.70;99.90;;;;;;5057591;28;20037;-79
2023/12/19 01:08:25;;;;;;;1999.90;999.90;;;-1.60;99.90;;;;;;5060340;28;20112;-80
2023/12/19 01:10:50;;;;;;;1999.90;999.90;;;-1.70;99.90;;;;;;5065349;28;20110;-80
2023/12/19 01:13:16;;;;;;;1999.90;999.90;;;-1.70;99.90;;;;;;5059250;28;20056;-80
2023/12/19 01:15:41;;;;;;;1999.90;999.90;;;-1.70;99.90;;;;;;5056893;28;20033;-80
2023/12/19 01:18:07;;;;;;;1999.90;999.90;;;-1.70;99.90;;;;;;5056448;28;20040;-79
2023/12/19 01:20:32;;;;;;;1999.90;999.90;;;-1.70;99.90;;;;;;5058267;28;20053;-80
2023/12/19 01:22:58;;;;;;;1999.90;999.90;;;-1.70;99.90;;;;;;5058006;28;20044;-79
2023/12/19 01:25:24;;;;;;;1999.90;999.90;;;-1.70;99.90;;;;;;5057610;28;20041;-80
2023/12/19 01:27:49;;;;;;;1999.90;999.90;;;-1.70;99.90;;;;;;5057566;28;20029;-80
2023/12/19 01:30:15;;;;;;;1999.90;999.90;;;-1.70;99.90;;;;;;5056276;28;20108;-80
2023/12/19 01:32:41;;;;;;;1999.90;999.90;;;-1.60;99.90;;;;;;5057080;28;20164;-80
2023/12/19 01:35:07;;;;;;;1999.90;999.90;;;-1.60;99.90;;;;;;5058354;28;20491;-80
2023/12/19 01:37:32;;;;;;;1999.90;999.90;;;-1.50;99.90;;;;;;5057252;28;20120;-80
2023/12/19 01:39:58;;;;;;;1999.90;999.90;;;-1.40;99.90;;;;;;5057079;28;20061;-80
2023/12/19 01:42:24;;;;;;;1999.90;999.90;;;-1.30;99.90;;;;;;5058540;28;20033;-80
2023/12/19 01:45:09;;;;;;;1999.90;999.90;;;-1.30;99.90;;;;;;5056708;28;20033;-80
2023/12/19 01:47:38;;;;;;;1999.90;999.90;;;-1.40;99.90;;;;;;5056016;28;20036;-80
2023/12/19 01:50:04;;;;;;;1999.90;999.90;;;-1.40;99.90;;;;;;5058709;28;20049;-80
2023/12/19 01:52:30;;;;;;;1999.90;999.90;;;-1.40;99.90;;;;;;5058276;28;20069;-80
2023/12/19 01:54:56;;;;;;;1999.90;999.90;;;-1.50;99.90;;;;;;5056610;28;20068;-80
2023/12/19 01:57:22;;;;;;;1999.90;999.90;;;-1.40;99.90;;;;;;5057212;28;20064;-80
2023/12/19 01:59:48;;;;;;;1999.90;999.90;;;-1.50;99.90;;;;;;5056489;28;20116;-80
2023/12/19 02:02:14;;;;;;;1999.90;999.90;;;-1.40;99.90;;;;;;5056420;28;20072;-80
2023/12/19 02:04:39;;;;;;;1999.90;999.90;;;-1.40;99.90;;;;;;5058247;28;20037;-80
2023/12/19 02:07:05;;;;;;;1999.90;999.90;;;-1.40;99.90;;;;;;5057903;28;20041;-80
2023/12/19 02:09:32;;;;;;;1999.90;999.90;;;-1.30;99.90;;;;;;5056835;28;20472;-79
2023/12/19 02:11:58;;;;;;;1999.90;999.90;;;-1.40;99.90;;;;;;5057194;28;20103;-80
2023/12/19 02:14:24;;;;;;;1999.90;999.90;;;-1.40;99.90;;;;;;5058562;28;20620;-80
2023/12/19 02:16:49;;;;;;;1999.90;999.90;;;-1.50;99.90;;;;;;5055905;28;20225;-80
2023/12/19 02:19:15;;;;;;;1999.90;999.90;;;-1.40;99.90;;;;;;5058483;28;20073;-79
2023/12/19 02:21:40;;;;;;;1999.90;999.90;;;-1.50;99.90;;;;;;5057610;28;20091;-80
2023/12/19 02:24:07;;;;;;;1999.90;999.90;;;-1.50;99.90;;;;;;5056352;28;20084;-79
2023/12/19 02:26:33;;;;;;;1999.90;999.90;;;-1.60;99.90;;;;;;5055473;28;20064;-79
2023/12/19 02:28:59;;;;;;;1999.90;999.90;;;-1.60;99.90;;;;;;5057461;28;20113;-79
2023/12/19 02:31:25;;;;;;;1999.90;999.90;;;-1.60;99.90;;;;;;5057299;28;20112;-79
2023/12/19 02:33:50;;;;;;;1999.90;999.90;;;-1.60;99.90;;;;;;5057948;28;20040;-80
2023/12/19 02:36:16;;;;;;;1999.90;999.90;;;-1.60;99.90;;;;;;5055443;28;20491;-80
2023/12/19 02:38:42;;;;;;;1999.90;999.90;;;-1.70;99.90;;;;;;5057639;28;20079;-80
2023/12/19 02:41:10;;;;;;;1999.90;999.90;;;-1.70;99.90;;;;;;5055119;28;20454;-79
2023/12/19 02:43:36;;;;;;;1999.90;999.90;;;-1.80;99.90;;;;;;5055260;28;20168;-79
2023/12/19 02:46:02;;;;;;;1999.90;999.90;;;-1.80;99.90;;;;;;5052506;28;20069;-80
2023/12/19 02:48:28;;;;;;;1999.90;999.90;;;-1.80;99.90;;;;;;5056645;28;20123;-79
2023/12/19 02:50:53;;;;;;;1999.90;999.90;;;-1.80;99.90;;;;;;5059082;28;20036;-80
2023/12/19 02:53:19;;;;;;;1999.90;999.90;;;-1.90;99.90;;;;;;5059183;28;20391;-79
2023/12/19 02:55:44;;;;;;;1999.90;999.90;;;-1.80;99.90;;;;;;5060001;28;20033;-80
2023/12/19 02:58:10;;;;;;;1999.90;999.90;;;-1.80;99.90;;;;;;5061045;28;20080;-80
2023/12/19 03:00:35;;;;;;;1999.90;999.90;;;-1.70;99.90;;;;;;5060895;28;20037;-79
2023/12/19 03:03:01;;;;;;;1999.90;999.90;;;-1.70;99.90;;;;;;5058966;28;20041;-80
2023/12/19 03:05:26;;;;;;;1999.90;999.90;;;-1.70;99.90;;;;;;5058791;28;20041;-79
2023/12/19 03:07:52;;;;;;;1999.90;999.90;;;-1.80;99.90;;;;;;5059568;28;20116;-79
2023/12/19 03:10:18;;;;;;;1999.90;999.90;;;-1.70;99.90;;;;;;5058718;28;20064;-79
2023/12/19 03:12:43;;;;;;;1999.90;999.90;;;-1.60;99.90;;;;;;5058913;28;20475;-80
2023/12/19 03:15:09;;;;;;;1999.90;999.90;;;-1.60;99.90;;;;;;5059985;28;20124;-80
2023/12/19 03:17:35;;;;;;;1999.90;999.90;;;-1.60;99.90;;;;;;5059281;28;20070;-80
2023/12/19 03:20:00;;;;;;;1999.90;999.90;;;-1.70;99.90;;;;;;5060592;28;20042;-79
2023/12/19 03:22:26;;;;;;;1999.90;999.90;;;-1.70;99.90;;;;;;5060909;28;20403;-79
2023/12/19 03:24:51;;;;;;;1999.90;999.90;;;-1.70;99.90;;;;;;5059224;28;20375;-80
2023/12/19 03:27:17;;;;;;;1999.90;999.90;;;-1.70;99.90;;;;;;5058504;28;20438;-80
2023/12/19 03:29:43;;;;;;;1999.90;999.90;;;-1.70;99.90;;;;;;5059278;28;20471;-79
2023/12/19 03:32:08;;;;;;;1999.90;999.90;;;-1.80;99.90;;;;;;5058720;28;20431;-79
2023/12/19 03:34:36;;;;;;;1999.90;999.90;;;-1.80;99.90;;;;;;5069654;28;20033;-79
2023/12/19 03:37:02;;;;;;;1999.90;999.90;;;-1.80;99.90;;;;;;5059764;28;20037;-80
2023/12/19 03:39:28;;;;;;;1999.90;999.90;;;-1.70;99.90;;;;;;5057103;28;20034;-79
2023/12/19 03:41:53;;;;;;;1999.90;999.90;;;-1.70;99.90;;;;;;5055682;28;20041;-79
2023/12/19 03:44:19;;;;;;;1999.90;999.90;;;-1.70;99.90;;;;;;5057259;28;20117;-79
2023/12/19 03:46:44;;;;;;;1999.90;999.90;;;-1.70;99.90;;;;;;5056336;28;20064;-79
2023/12/19 03:49:10;;;;;;;1999.90;999.90;;;-1.70;99.90;;;;;;5057036;28;20033;-79
2023/12/19 03:51:35;;;;;;;1999.90;999.90;;;-1.70;99.90;;;;;;5055646;28;20044;-79
2023/12/19 03:54:01;;;;;;;1999.90;999.90;;;-1.70;99.90;;;;;;5055594;28;20032;-79
2023/12/19 03:56:26;;;;;;;1999.90;999.90;;;-1.80;99.90;;;;;;5054612;28;20419;-79
2023/12/19 03:58:52;;;;;;;1999.90;999.90;;;-1.80;99.90;;;;;;5056577;28;20026;-79
2023/12/19 04:01:18;;;;;;;1999.90;999.90;;;-1.90;99.90;;;;;;5055576;28;20041;-79
2023/12/19 04:03:44;;;;;;;1999.90;999.90;;;-2.00;99.90;;;;;;5055554;28;20200;-79
2023/12/19 04:06:10;;;;;;;1999.90;999.90;;;-2.10;99.90;;;;;;5056134;28;20056;-79
2023/12/19 04:08:36;;;;;;;1999.90;999.90;;;-2.10;99.90;;;;;;5056860;28;20030;-79
2023/12/19 04:11:01;;;;;;;1999.90;999.90;;;-2.00;99.90;;;;;;5055366;28;20124;-79
2023/12/19 04:13:27;;;;;;;1999.90;999.90;;;-2.10;99.90;;;;;;5056684;28;20438;-79
2023/12/19 04:15:53;;;;;;;1999.90;999.90;;;-2.20;99.90;;;;;;5054353;28;20511;-79
2023/12/19 04:18:19;;;;;;;1999.90;999.90;;;-2.30;99.90;;;;;;5055273;28;20082;-79
2023/12/19 04:20:44;;;;;;;1999.90;999.90;;;-2.30;99.90;;;;;;5056305;28;20044;-79
2023/12/19 04:23:10;;;;;;;1999.90;999.90;;;-2.20;99.90;;;;;;5055173;28;20079;-79
2023/12/19 04:25:35;;;;;;;1999.90;999.90;;;-2.10;99.90;;;;;;5054868;28;20041;-80
2023/12/19 04:28:01;;;;;;;1999.90;999.90;;;-2.10;99.90;;;;;;5054349;28;20030;-79
2023/12/19 04:30:26;;;;;;;1999.90;999.90;;;-2.00;99.90;;;;;;5055032;28;20135;-79
2023/12/19 04:32:52;;;;;;;1999.90;999.90;;;-1.90;99.90;;;;;;5053310;28;20034;-79
2023/12/19 04:35:17;;;;;;;1999.90;999.90;;;-1.80;99.90;;;;;;5056135;28;20535;-79
2023/12/19 04:37:43;;;;;;;1999.90;999.90;;;-1.80;99.90;;;;;;5053862;28;20383;-79
2023/12/19 04:40:09;;;;;;;1999.90;999.90;;;-1.60;99.90;;;;;;5056269;28;20037;-79
2023/12/19 04:42:35;;;;;;;1999.90;999.90;;;-1.60;99.90;;;;;;5054847;28;20415;-79
2023/12/19 04:45:01;;;;;;;1999.90;999.90;;;-1.60;99.90;;;;;;5056235;28;20072;-79
2023/12/19 04:47:26;;;;;;;1999.90;999.90;;;-1.70;99.90;;;;;;5055488;28;20029;-79
2023/12/19 04:49:52;;;;;;;1999.90;999.90;;;-1.70;99.90;;;;;;5054677;28;20040;-79
2023/12/19 04:52:17;;;;;;;1999.90;999.90;;;-1.80;99.90;;;;;;5054737;28;20476;-79
2023/12/19 04:54:45;;;;;;;1999.90;999.90;;;-1.90;99.90;;;;;;5054568;28;20573;-79
2023/12/19 04:57:11;;;;;;;1999.90;999.90;;;-2.00;99.90;;;;;;5053818;28;20041;-79
2023/12/19 04:59:36;;;;;;;1999.90;999.90;;;-2.00;99.90;;;;;;5054513;28;20033;-79
2023/12/19 05:02:02;;;;;;;1999.90;999.90;;;-2.00;99.90;;;;;;5055766;28;20498;-79
2023/12/19 05:04:27;;;;;;;1999.90;999.90;;;-2.10;99.90;;;;;;5055946;28;20038;-79
2023/12/19 05:06:53;;;;;;;1999.90;999.90;;;-2.10;99.90;;;;;;5053820;28;20479;-81
2023/12/19 05:09:20;;;;;;;1999.90;999.90;;;-2.10;99.90;;;;;;5054399;28;20068;-79
2023/12/19 05:11:45;;;;;;;1999.90;999.90;;;-2.10;99.90;;;;;;5055377;28;20100;-79
2023/12/19 05:14:11;;;;;;;1999.90;999.90;;;-2.10;99.90;;;;;;5055844;28;20033;-79
2023/12/19 05:16:37;;;;;;;1999.90;999.90;;;-2.20;99.90;;;;;;5053483;28;20064;-79
2023/12/19 05:19:04;;;;;;;1999.90;999.90;;;-2.20;99.90;;;;;;5054234;28;20108;-79
2023/12/19 05:21:35;;;;;;;1999.90;999.90;;;-2.30;99.90;;;;;;5055472;28;20507;-79
2023/12/19 05:24:01;;;;;;;1999.90;999.90;;;-2.30;99.90;;;;;;5055485;28;20080;-79
2023/12/19 05:26:26;;;;;;;1999.90;999.90;;;-2.30;99.90;;;;;;5054852;28;20569;-79
2023/12/19 05:28:54;;;;;;;1999.90;999.90;;;-2.30;99.90;;;;;;5055756;28;20472;-79
2023/12/19 05:31:20;;;;;;;1999.90;999.90;;;-2.30;99.90;;;;;;5054176;28;20041;-79
2023/12/19 05:33:46;;;;;;;1999.90;999.90;;;-2.30;99.90;;;;;;5055303;28;20164;-80
2023/12/19 05:36:12;;;;;;;1999.90;999.90;;;-2.20;99.90;;;;;;5054474;28;20063;-79
2023/12/19 05:38:38;;;;;;;1999.90;999.90;;;-2.20;99.90;;;;;;5053878;28;20522;-79
2023/12/19 05:41:04;;;;;;;1999.90;999.90;;;-2.20;99.90;;;;;;5054854;28;20121;-80
2023/12/19 05:43:30;;;;;;;1999.90;999.90;;;-2.20;99.90;;;;;;5049827;28;20079;-80
2023/12/19 05:45:55;;;;;;;1999.90;999.90;;;-2.20;99.90;;;;;;5052999;28;20514;-80
2023/12/19 05:48:22;;;;;;;1999.90;999.90;;;-2.20;99.90;;;;;;5056432;28;20112;-79
2023/12/19 05:50:48;;;;;;;1999.90;999.90;;;-2.10;99.90;;;;;;5084772;28;20056;-79
2023/12/19 05:53:14;;;;;;;1999.90;999.90;;;-2.10;99.90;;;;;;5055052;28;20034;-79
2023/12/19 05:55:40;;;;;;;1999.90;999.90;;;-2.00;99.90;;;;;;5042169;28;20029;-80
2023/12/19 05:58:06;;;;;;;1999.90;999.90;;;-2.00;99.90;;;;;;5056249;28;20038;-79
2023/12/19 06:00:32;;;;;;;1999.90;999.90;;;-2.00;99.90;;;;;;5055160;28;20040;-80
2023/12/19 06:02:57;;;;;;;1999.90;999.90;;;-1.90;99.90;;;;;;5053638;28;20084;-80
2023/12/19 06:05:24;;;;;;;1999.90;999.90;;;-1.80;99.90;;;;;;5053429;28;20099;-80
2023/12/19 06:07:49;;;;;;;1999.90;999.90;;;-1.80;99.90;;;;;;5054195;28;20021;-80
2023/12/19 06:10:15;;;;;;;1999.90;999.90;;;-1.80;99.90;;;;;;5053210;28;20044;-80
2023/12/19 06:12:41;;;;;;;1999.90;999.90;;;-1.70;99.90;;;;;;5055243;28;20083;-79
2023/12/19 06:15:12;;;;;;;1999.90;999.90;;;-1.60;99.90;;;;;;5053488;28;20476;-80
2023/12/19 06:17:42;;;;;;;1999.90;999.90;;;-1.50;99.90;;;;;;5035255;28;20033;-80
2023/12/19 06:20:11;;;;;;;1999.90;999.90;;;-1.20;99.90;;;;;;5033553;28;20037;-79
2023/12/19 06:22:38;;;;;;;1999.90;999.90;;;-1.50;99.90;;;;;;5035274;28;20033;-80
2023/12/19 06:25:04;;;;;;;1999.90;999.90;;;-1.50;99.90;;;;;;5034634;28;20034;-80
2023/12/19 06:27:30;;;;;;;1999.90;999.90;;;-1.50;99.90;;;;;;5032554;28;20553;-80
2023/12/19 06:29:55;;;;;;;1999.90;999.90;;;-1.50;99.90;;;;;;5034141;28;20036;-81
2023/12/19 06:32:21;;;;;;;1999.90;999.90;;;-1.50;99.90;;;;;;5033908;28;20500;-80
2023/12/19 06:34:46;;;;;;;1999.90;999.90;;;-1.40;99.90;;;;;;5033467;28;20038;-80
2023/12/19 06:37:12;;;;;;;1999.90;999.90;;;-1.50;99.90;;;;;;5034095;28;20044;-80
2023/12/19 06:39:38;;;;;;;1999.90;999.90;;;-1.40;99.90;;;;;;5033545;28;20117;-80
2023/12/19 06:42:03;;;;;;;1999.90;999.90;;;-1.30;99.90;;;;;;5033771;28;20046;-80
2023/12/19 06:44:29;;;;;;;1999.90;999.90;;;-1.20;99.90;;;;;;5034894;28;20808;-80
2023/12/19 06:46:54;;;;;;;1999.90;999.90;;;-1.10;99.90;;;;;;5034424;28;20038;-79
2023/12/19 06:49:20;;;;;;;1999.90;999.90;;;-1.00;99.90;;;;;;5033498;28;20029;-80
2023/12/19 06:51:46;;;;;;;1999.90;999.90;;;-0.90;99.90;;;;;;5035045;28;20045;-79
2023/12/19 06:54:11;;;;;;;1999.90;999.90;;;-0.80;99.90;;;;;;5033659;28;20108;-80
2023/12/19 06:56:37;;;;;;;1999.90;999.90;;;-0.70;99.90;;;;;;5053206;28;20068;-80
2023/12/19 06:59:04;;;;;;;1999.90;999.90;;;-0.50;99.90;;;;;;5054819;28;20025;-80
2023/12/19 07:01:29;;;;;;;1999.90;999.90;;;-0.30;99.90;;;;;;5055065;28;20507;-81
2023/12/19 07:03:55;;;;;;;1999.90;999.90;;;-0.30;99.90;;;;;;5054740;28;20040;-81
2023/12/19 07:06:21;;;;;;;1999.90;999.90;;;-0.20;99.90;;;;;;5053991;28;20109;-81
2023/12/19 07:08:47;;;;;;;1999.90;999.90;;;-0.20;99.90;;;;;;5053329;28;20426;-80
2023/12/19 07:11:14;;;;;;;1999.90;999.90;;;-0.20;99.90;;;;;;5054769;28;20117;-82
2023/12/19 07:13:40;;;;;;;1999.90;999.90;;;-0.20;99.90;;;;;;5087609;28;20117;-80
2023/12/19 07:16:06;;;;;;;1999.90;999.90;;;-0.30;99.90;;;;;;5052621;28;20116;-85
2023/12/19 07:18:32;;;;;;;1999.90;999.90;;;-0.20;99.90;;;;;;5052903;28;20029;-81
2023/12/19 07:20:58;;;;;;;1999.90;999.90;;;-0.20;99.90;;;;;;5052825;28;20100;-81
2023/12/19 07:23:24;;;;;;;1999.90;999.90;;;-0.10;99.90;;;;;;5053043;28;20032;-81
2023/12/19 07:25:50;;;;;;;1999.90;999.90;;;-0.10;99.90;;;;;;5052977;28;20120;-81
2023/12/19 07:28:16;;;;;;;1999.90;999.90;;;-0.10;99.90;;;;;;5054344;28;20101;-82
2023/12/19 07:30:42;;;;;;;1999.90;999.90;;;-0.20;99.90;;;;;;5053295;28;20045;-80
2023/12/19 07:33:07;;;;;;;1999.90;999.90;;;-0.30;99.90;;;;;;5053217;28;20029;-82
2023/12/19 07:35:33;;;;;;;1999.90;999.90;;;-0.30;99.90;;;;;;5057100;28;20077;-81
2023/12/19 07:37:59;;;;;;;1999.90;999.90;;;-0.30;99.90;;;;;;5055609;28;20029;-81
2023/12/19 07:40:24;;;;;;;1999.90;999.90;;;-0.30;99.90;;;;;;5056713;28;20169;-80
2023/12/19 07:42:50;;;;;;;1999.90;999.90;;;-0.30;99.90;;;;;;5058464;28;20033;-81
2023/12/19 07:45:15;;;;;;;1999.90;999.90;;;-0.30;99.90;;;;;;5090215;28;20045;-78
2023/12/19 07:47:41;;;;;;;1999.90;999.90;;;-0.30;99.90;;;;;;5057275;28;20036;-78
2023/12/19 07:50:07;;;;;;;1999.90;999.90;;;-0.10;99.90;;;;;;5058202;28;20037;-79
2023/12/19 07:52:33;;;;;;;1999.90;999.90;;;-0.20;99.90;;;;;;5058567;28;20033;-80
2023/12/19 07:54:59;;;;;;;1999.90;999.90;;;-0.20;99.90;;;;;;5058694;28;20038;-80
2023/12/19 07:57:24;;;;;;;1999.90;999.90;;;-0.10;99.90;;;;;;5055719;28;20034;-80
2023/12/19 07:59:50;;;;;;;1999.90;999.90;;;0.00;99.90;;;;;;5058501;28;20041;-79
2023/12/19 08:02:16;;;;;;;1999.90;999.90;;;0.10;99.90;;;;;;5090850;28;20037;-80
2023/12/19 08:04:42;;;;;;;1999.90;999.90;;;0.10;99.90;;;;;;5057670;28;20564;-80
2023/12/19 08:07:08;;;;;;;1999.90;999.90;;;0.10;99.90;;;;;;5056535;28;20816;-79
2023/12/19 08:09:34;;;;;;;1999.90;999.90;;;0.00;99.90;;;;;;5057292;28;20038;-80
2023/12/19 08:12:00;;;;;;;1999.90;999.90;;;0.00;99.90;;;;;;5057221;28;20037;-80
2023/12/19 08:14:25;;;;;;;1999.90;999.90;;;-0.10;99.90;;;;;;5057413;28;20030;-81
2023/12/19 08:16:51;;;;;;;1999.90;999.90;;;-0.10;99.90;;;;;;5055709;28;20545;-80
2023/12/19 08:19:17;;;;;;;1999.90;999.90;;;-0.20;99.90;;;;;;5090263;28;20491;-82
2023/12/19 08:21:53;;;;;;;1999.90;999.90;;;-0.20;99.90;;;;;;5042290;28;20033;-81
2023/12/19 08:24:19;;;;;;;1999.90;999.90;;;-0.20;99.90;;;;;;5060018;28;20443;-81
2023/12/19 08:26:49;;;;;;;1999.90;999.90;;;-0.20;99.90;;;;;;5059627;28;20040;-80
2023/12/19 08:29:15;;;;;;;1999.90;999.90;;;-0.20;99.90;;;;;;5055019;28;20041;-81
2023/12/19 08:31:40;;;;;;;1999.90;999.90;;;-0.20;99.90;;;;;;5057034;28;20038;-81
2023/12/19 08:34:06;;;;;;;1999.90;999.90;;;0.00;99.90;;;;;;5055278;28;20036;-81
2023/12/19 08:36:32;;;;;;;1999.90;999.90;;;0.00;99.90;;;;;;5056600;28;20033;-81
2023/12/19 08:38:59;;;;;;;1999.90;999.90;;;0.10;99.90;;;;;;5055986;28;20073;-81
2023/12/19 08:41:25;;;;;;;1999.90;999.90;;;0.10;99.90;;;;;;5055209;28;20041;-80
2023/12/19 08:43:50;;;;;;;1999.90;999.90;;;0.20;99.90;;;;;;5057756;28;20036;-79
2023/12/19 08:46:19;;;;;;;1999.90;999.90;;;0.30;99.90;;;;;;5055261;28;20033;-80
2023/12/19 08:48:49;;;;;;;1999.90;999.90;;;0.40;99.90;;;;;;5057282;28;20041;-81
2023/12/19 08:51:15;;;;;;;1999.90;999.90;;;0.40;99.90;;;;;;5055538;28;20037;-79
2023/12/19 08:53:41;;;;;;;1999.90;999.90;;;0.40;99.90;;;;;;5056147;28;20038;-80
2023/12/19 08:56:07;;;;;;;1999.90;999.90;;;0.50;99.90;;;;;;5055195;28;20041;-81
2023/12/19 08:58:32;;;;;;;1999.90;999.90;;;0.50;99.90;;;;;;5054846;28;20037;-82
2023/12/19 09:00:58;;;;;;;1999.90;999.90;;;0.60;99.90;;;;;;5055699;28;20119;-80
2023/12/19 09:03:24;;;;;;;1999.90;999.90;;;0.60;99.90;;;;;;5054601;28;20120;-80
2023/12/19 09:05:52;;;;;;;1999.90;999.90;;;0.60;99.90;;;;;;5055477;28;20390;-80
2023/12/19 09:08:18;;;;;;;1999.90;999.90;;;0.60;99.90;;;;;;5056477;28;20033;-80
2023/12/19 09:10:45;;;;;;;1999.90;999.90;;;0.70;99.90;;;;;;5056829;28;20042;-82
2023/12/19 09:13:11;;;;;;;1999.90;999.90;;;0.70;99.90;;;;;;5056984;28;20032;-81
2023/12/19 09:15:36;;;;;;;1999.90;999.90;;;0.80;99.90;;;;;;5056640;28;20029;-85
2023/12/19 09:18:03;;;;;;;1999.90;999.90;;;0.80;99.90;;;;;;5058494;28;20029;-81
2023/12/19 09:20:29;;;;;;;1999.90;999.90;;;0.80;99.90;;;;;;5057035;28;20041;-83
2023/12/19 09:22:55;;;;;;;1999.90;999.90;;;1.10;99.90;;;;;;5057436;28;20109;-82
2023/12/19 09:25:20;;;;;;;1999.90;999.90;;;0.90;99.90;;;;;;5056192;28;20120;-82
2023/12/19 09:27:46;;;;;;;1999.90;999.90;;;0.90;99.90;;;;;;5055774;28;20037;-82
2023/12/19 09:30:14;;;;;;;1999.90;999.90;;;0.90;99.90;;;;;;5057763;28;20040;-82
2023/12/19 09:32:41;;;;;;;1999.90;999.90;;;1.00;99.90;;;;;;5059596;28;20626;-80
2023/12/19 09:35:07;;;;;;;1999.90;999.90;;;1.00;99.90;;;;;;5057620;28;20844;-81
2023/12/19 09:37:33;;;;;;;1999.90;999.90;;;1.00;99.90;;;;;;5055263;28;20080;-81
2023/12/19 09:40:00;;;;;;;1999.90;999.90;;;1.10;99.90;;;;;;5057330;28;20029;-80
2023/12/19 09:42:27;;;;;;;1999.90;999.90;;;1.20;99.90;;;;;;5056673;28;20022;-82
2023/12/19 09:44:52;;;;;;;1999.90;999.90;;;1.20;99.90;;;;;;5053221;28;20163;-81
2023/12/19 09:47:26;;;;;;;1999.90;999.90;;;1.30;99.90;;;;;;5053723;28;20092;-81
2023/12/19 09:49:57;;;;;;;1999.90;999.90;;;1.30;99.90;;;;;;5054664;28;20022;-81
2023/12/19 09:52:27;;;;;;;1999.90;999.90;;;1.30;99.90;;;;;;5055012;28;20028;-82
2023/12/19 09:54:53;;;;;;;1999.90;999.90;;;1.30;99.90;;;;;;5056880;28;20034;-81
2023/12/19 09:57:23;;;;;;;1999.90;999.90;;;1.30;99.90;;;;;;5054855;28;20454;-78
2023/12/19 09:59:51;;;;;;;1999.90;999.90;;;1.40;99.90;;;;;;5057011;28;20080;-80
2023/12/19 10:02:20;;;;;;;1999.90;999.90;;;1.40;99.90;;;;;;5057875;28;20048;-78
2023/12/19 10:04:45;;;;;;;1999.90;999.90;;;1.40;99.90;;;;;;5057580;28;20030;-79
2023/12/19 10:07:11;;;;;;;1999.90;999.90;;;1.50;99.90;;;;;;5057551;28;20038;-81
2023/12/19 10:09:56;;;;;;;1999.90;999.90;;;1.50;99.90;;;;;;5055611;28;20511;-78
2023/12/19 10:12:27;;;;;;;1999.90;999.90;;;1.50;99.90;;;;;;5056701;28;20112;-77
2023/12/19 10:15:08;;;;;;;1999.90;999.90;;;1.60;99.90;;;;;;5056811;28;20052;-80
2023/12/19 10:17:34;;;;;;;1999.90;999.90;;;1.60;99.90;;;;;;5056939;28;20038;-80
2023/12/19 10:20:09;;;;;;;1999.90;999.90;;;1.60;99.90;;;;;;5055962;28;20040;-80
2023/12/19 10:22:35;;;;;;;1999.90;999.90;;;1.50;99.90;;;;;;5055416;28;20091;-80
2023/12/19 10:25:00;;;;;;;1999.90;999.90;;;1.60;99.90;;;;;;5055745;28;20450;-79
2023/12/19 10:27:26;;;;;;;1999.90;999.90;;;1.60;99.90;;;;;;5056674;28;20037;-80
2023/12/19 10:29:51;;;;;;;1999.90;999.90;;;1.60;99.90;;;;;;5061714;28;20542;-80
2023/12/19 10:32:19;;;;;;;1999.90;999.90;;;1.70;99.90;;;;;;5056973;28;20072;-79
2023/12/19 10:34:46;;;;;;;1999.90;999.90;;;1.80;99.90;;;;;;5056763;28;20113;-80
2023/12/19 10:37:14;;;;;;;1999.90;999.90;;;1.80;99.90;;;;;;5055252;28;20667;-79
2023/12/19 10:39:41;;;;;;;1999.90;999.90;;;1.90;99.90;;;;;;5055498;28;20063;-80
2023/12/19 10:42:10;;;;;;;1999.90;999.90;;;2.00;99.90;;;;;;5055407;28;20268;-80
2023/12/19 10:44:40;;;;;;;1999.90;999.90;;;2.00;99.90;;;;;;5056788;28;20097;-80
2023/12/19 10:47:07;;;;;;;1999.90;999.90;;;2.10;99.90;;;;;;5052725;28;20102;-80
2023/12/19 10:49:34;;;;;;;1999.90;999.90;;;2.20;99.90;;;;;;5057590;28;20063;-80
2023/12/19 10:52:05;;;;;;;1999.90;999.90;;;2.20;99.90;;;;;;5068698;28;20026;-79
2023/12/19 10:54:33;;;;;;;1999.90;999.90;;;2.30;99.90;;;;;;5071337;28;20064;-80
2023/12/19 10:57:17;;;;;;;1999.90;999.90;;;2.40;99.90;;;;;;5067900;28;20043;-80
2023/12/19 10:59:51;;;;;;;1999.90;999.90;;;2.40;99.90;;;;;;5076462;28;20517;-81
2023/12/19 11:02:34;;;;;;;1999.90;999.90;;;2.50;99.90;;;;;;5077331;28;20041;-81
2023/12/19 11:05:14;;;;;;;1999.90;999.90;;;2.50;99.90;;;;;;5077493;28;20029;-82
2023/12/19 11:07:42;;;;;;;1999.90;999.90;;;2.60;99.90;;;;;;5078435;28;20746;-79
2023/12/19 11:10:09;;;;;;;1999.90;999.90;;;2.70;99.90;;;;;;5079903;28;20116;-79
2023/12/19 11:12:36;;;;;;;1999.90;999.90;;;2.80;99.90;;;;;;5080069;28;20033;-79
2023/12/19 11:15:03;;;;;;;1999.90;999.90;;;3.00;99.90;;;;;;5079034;28;20025;-80
2023/12/19 11:17:43;;;;;;;1999.90;999.90;;;3.10;99.90;;;;;;5078301;28;20043;-79
2023/12/19 11:20:33;;;;;;;1999.90;999.90;;;3.30;99.90;;;;;;5080594;28;20088;-79
2023/12/19 11:23:20;;;;;;;1999.90;999.90;;;3.40;99.90;;;;;;5079288;28;20052;-78
2023/12/19 11:25:59;;;;;;;1999.90;999.90;;;3.50;99.90;;;;;;5079037;28;20060;-80
2023/12/19 11:28:26;;;;;;;1999.90;999.90;;;3.60;99.90;;;;;;5080191;28;20091;-78
2023/12/19 11:30:52;;;;;;;1999.90;999.90;;;3.70;99.90;;;;;;5065711;28;20072;-79
2023/12/19 11:33:29;;;;;;;1999.90;999.90;;;3.70;99.90;;;;;;5060328;28;20033;-78
2023/12/19 11:35:54;;;;;;;1999.90;999.90;;;3.90;99.90;;;;;;5040036;28;20034;-78
2023/12/19 11:38:29;;;;;;;1999.90;999.90;;;3.80;99.90;;;;;;5056476;28;20037;-80
2023/12/19 11:40:57;;;;;;;1999.90;999.90;;;3.90;99.90;;;;;;5061097;28;20120;-81
2023/12/19 11:43:29;;;;;;;1999.90;999.90;;;3.80;99.90;;;;;;5061759;28;20053;-80
2023/12/19 11:46:06;;;;;;;1999.90;999.90;;;3.80;99.90;;;;;;5060644;28;20037;-78
2023/12/19 11:48:37;;;;;;;1999.90;999.90;;;3.90;99.90;;;;;;5061896;28;20124;-79
2023/12/19 11:51:10;;;;;;;1999.90;999.90;;;3.90;99.90;;;;;;5061359;28;20087;-79
2023/12/19 11:53:37;;;;;;;1999.90;999.90;;;3.90;99.90;;;;;;5062305;28;20025;-80
2023/12/19 11:56:08;;;;;;;1999.90;999.90;;;4.00;99.90;;;;;;5062674;28;20069;-80
2023/12/19 11:58:34;;;;;;;1999.90;999.90;;;3.90;99.90;;;;;;5061547;28;20116;-81